• Join FlightAware (Why Join?)
  • Login
  • US Flag 
01:47AM EDT


 

Airport Tracker/Info


-or-


 

Live Flight TrackerFlight Track Log ✈ SWA655 ✈ 18-Apr-2013 ✈ KSNA - KOAK

Flight Track Log - Related Links

Times and Time Zones

All times are in EDT time to prevent confusion due to time zone crossing. See the SWA655 flight status page for this flight to view local times or setup timezone preferences in your user account.

Time Position Orientation Groundspeed Altitude Reporting Facility
EDT Latitude Longitude Course Direction KTS MPH feet Rate Location/Type
02:23PM 33.6833 -117.8667 61° Northeast 127 146 1,700  Level Southern California TRACON
02:26PM 33.7206 -117.7853 61° Northeast 231 266 7,800 2,520 Climbing Los Angeles Center
02:27PM 33.6567 -117.8397 215° Southwest 274 315 10,400 2,520 Climbing Los Angeles Center
02:28PM 33.5600 -117.9161 213° Southwest 328 377 13,100 2,760 Climbing Los Angeles Center
02:29PM 33.4803 -117.9981 221° Southwest 367 422 16,200 3,000 Climbing Los Angeles Center
02:30PM 33.4089 -118.0944 228° Southwest 380 437 19,300 3,060 Climbing Los Angeles Center
02:31PM 33.3828 -118.2125 255° West 377 434 22,600 1,860 Climbing Los Angeles Center
02:32PM 33.4608 -118.2847 322° Northwest 364 419 23,200 1,620 Climbing Los Angeles Center
02:33PM 33.5597 -118.3156 345° North 365 420 26,000 2,340 Climbing Los Angeles Center
02:34PM 33.6619 -118.3489 345° North 371 427 28,100 2,220 Climbing Los Angeles Center
02:35PM 33.7911 -118.3908 345° North 385 443 30,700 2,460 Climbing Los Angeles Center
02:36PM 33.8897 -118.4189 347° North 402 463 33,200 2,220 Climbing Los Angeles Center
02:37PM 34.0119 -118.4719 340° North 393 452 35,400 1,860 Climbing Los Angeles Center
02:38PM 34.1122 -118.5203 338° Northwest 389 448 37,100 1,200 Climbing Los Angeles Center
02:39PM 34.2136 -118.5706 338° Northwest 393 452 38,000 420 Climbing Los Angeles Center
02:40PM 34.3144 -118.6189 338° Northwest 392 451 38,000  Level Los Angeles Center
02:41PM 34.4144 -118.6694 337° Northwest 389 448 38,000  Level Los Angeles Center
02:42PM 34.5147 -118.7197 338° Northwest 390 449 38,000  Level Los Angeles Center
02:43PM 34.6350 -118.7789 338° Northwest 391 450 38,000  Level Los Angeles Center
02:44PM 34.7356 -118.8300 337° Northwest 392 451 38,000  Level Los Angeles Center
02:46PM 34.8333 -118.8889 334° Northwest 394 453 38,000  Level Los Angeles Center
02:47PM 34.9178 -118.9733 321° Northwest 388 447 38,000  Level Los Angeles Center
02:48PM 35.0028 -119.0583 321° Northwest 397 457 38,000  Level Los Angeles Center
02:49PM 35.0900 -119.1408 322° Northwest 398 458 38,000  Level Los Angeles Center
02:50PM 35.1933 -119.2414 322° Northwest 397 457 38,000  Level Los Angeles Center
02:51PM 35.2767 -119.3244 321° Northwest 392 451 38,000  Level Los Angeles Center
02:52PM 35.3606 -119.4069 321° Northwest 390 449 38,000  Level Los Angeles Center
02:53PM 35.4447 -119.4903 321° Northwest 392 451 38,000  Level Los Angeles Center
02:54PM 35.5278 -119.5736 321° Northwest 389 448 38,000  Level Los Angeles Center
02:55PM 35.6100 -119.6542 321° Northwest 391 450 38,000  Level Oakland Center
02:56PM 35.6933 -119.7364 321° Northwest 390 449 38,000  Level Oakland Center
02:57PM 35.7783 -119.8214 321° Northwest 395 455 38,000  Level Oakland Center
02:58PM 35.8589 -119.9039 320° Northwest 387 445 38,000  Level Oakland Center
02:59PM 35.9422 -119.9872 321° Northwest 387 445 38,000  Level Oakland Center
03:00PM 36.0419 -120.0875 321° Northwest 389 448 38,000  Level Oakland Center
03:01PM 36.1242 -120.1711 321° Northwest 385 443 38,000 -540 Level Oakland Center
03:02PM 36.2064 -120.2544 321° Northwest 384 442 37,000 -960 Descending Oakland Center
03:03PM 36.2881 -120.3378 321° Northwest 383 441 36,100 -900 Descending Oakland Center
03:04PM 36.3728 -120.4258 320° Northwest 397 457 35,200 -1,320 Descending Oakland Center
03:05PM 36.4572 -120.5125 320° Northwest 395 455 33,500 -1,920 Descending Oakland Center
03:06PM 36.5372 -120.5933 321° Northwest 377 434 31,300 -2,280 Descending Oakland Center
03:07PM 36.6281 -120.6881 320° Northwest 353 406 28,900 -2,160 Descending Oakland Center
03:08PM 36.7003 -120.7642 320° Northwest 341 392 26,900 -1,920 Descending Oakland Center
03:09PM 36.7683 -120.8392 319° Northwest 328 377 25,000 -1,860 Descending Oakland Center
03:10PM 36.8408 -120.9183 319° Northwest 328 377 23,100 -1,920 Descending Oakland Center
03:11PM 36.9117 -120.9992 318° Northwest 342 394 21,100 -1,860 Descending Oakland Center
03:12PM 36.9775 -121.0781 316° Northwest 327 376 19,300 -1,680 Descending Oakland Center
03:13PM 37.0414 -121.1514 318° Northwest 316 364 17,700 -1,740 Descending Oakland Center
03:14PM 37.1036 -121.2217 318° Northwest 306 352 15,800 -1,920 Descending Oakland Center
03:15PM 37.1681 -121.2953 318° Northwest 310 357 13,800 -1,860 Descending Oakland Center
03:16PM 37.2289 -121.3681 316° Northwest 304 350 12,000 -1,740 Descending Oakland Center
03:17PM 37.2875 -121.4381 316° Northwest 295 339 10,300 -1,320 Descending Oakland Center
03:18PM 37.3439 -121.5017 318° Northwest 277 319 9,300 -1,140 Descending Oakland Center
03:19PM 37.4000 -121.5667 317° Northwest 264 304 8,200 -1,080 Descending Northern Cal TRACON
03:20PM 37.4500 -121.6333 313° West 267 307 7,300 -960 Descending Northern Cal TRACON
03:21PM 37.4833 -121.7167 297° West 272 313 6,300 -660 Descending Northern Cal TRACON
03:22PM 37.5000 -121.8167 282° West 264 304 6,000 -540 Descending Northern Cal TRACON
03:23PM 37.5167 -121.9000 284° West 246 283 5,300 -660 Descending Northern Cal TRACON
03:24PM 37.5500 -121.9667 302° West 228 262 4,700 -660 Descending Northern Cal TRACON
03:25PM 37.5833 -122.0333 302° West 222 255 4,000 -780 Descending Northern Cal TRACON
03:26PM 37.6167 -122.0833 310° West 177 204 3,200 -1,080 Descending Northern Cal TRACON
03:27PM 37.6500 -122.1333 310° West 153 176 1,900 -1,380 Descending Northern Cal TRACON
03:27PM 37.6517 -122.1408 286° West 168 193 1,400 -840 Descending Oakland Center
03:28PM 37.6758 -122.1761 311° West 149 171 800 -660 Descending Oakland Center
03:30PM 37.6975 -122.2089 310° West 135 155 100 -720 Descending Oakland Center
03:31PM 37.7167 -122.2167 270° West  Level FlightAware Approximate
03:38PM 37.7213 -122.2207 270° West  Level Estimated
03:39PM 37.7167 -122.2167 270° West  Level FlightAware Approximate